罗盘
风向 的 风向 的 风向 到 风向 120° Richelieu Airport 13/31
风: 3 kt, 1 beaufort

3 kt

1 kt
改变
0 2.000 4.000 6.000 8.000 10.000
FEW 4.000 ft
BKN 5.500 ft
BKN 10.000 ft
METAR CYHU 051800Z AUTO 12003KT 040V170 9SM FEW040 BKN055 BKN100 20/14 A2992 RMK SLP133 DENSITY ALT 800FT

METAR Richelieu Airport

Richelieu Airport是Richelieu,加拿大中的小机场。 该机场有一条跑道: 13/31.

这份报告是针对2022年7月5日 2:00 下午, 当地时间在Montréal / Saint-Hubert Airport进行的。

机场观察

风向为120°,速度为3 kt。 风向在040°和170°之间变化。

可见度为9 mi。

有几云在4.000 ft的高度, 碎云在5.500 ft的高度 和 碎云在10.000 ft的高度。 破损或更高的上限为5.500 ft。

温度和风寒是68 °F。 露点为57 °F,相对湿度为69%。 海平面上的气压为29,91 inHg (QNH)。

白天

今天,太阳从5:11 上午升起,在8:44 下午降落。 这适用于Richelieu Airport,世界夏令时可能有所不同。 当地时间与世界标准时间之间的时差为-4 小时。 夏令时目前正在进行中。

公司介绍

我们没有关于这个机场的公司信息。

体会

到Vliegles.nl去找飞行课程,跳伞和其他飞行体验。 浏览页面,了解Richelieu Airport附近所有可用的活动。 你也可以使用搜索功能来寻找你所在地附近的特定飞行课程、跳伞或其他飞行体验。

您会帮助我们保持Metar-Taf.com正常运行吗?
您的贡献有助于网站的进一步开发并支付费用。

没有更多广告

您是捐款5美元还是更多?然后,我们将永远不会再向您展示广告,这是我们永恒的感谢!
捐赠前先登录

跑道

Id 标题 侧风 逆风 侧风 %
13/31 130°-310° 3 kt 17 %

逆风成分最大的方向会被突出显示,并用于横风计算。 这并不一定意味着这个方向在使用。

乌云

4.000 ft FEW 几云
5.500 ft BKN 碎云
10.000 ft BKN 碎云

温度 & 天气

温度 68 °F
露点 57 °F
相对湿度 69%
Kp-index 0  

评论

SLP133海平面压力为29,92 inHg (29,92 inHg)
DENSITY ALT 800FT

公司介绍

新增公司

下载我们的应用程序

在您的手机和平板电脑上轻松访问所有航空天气。
有许多网站上没有的功能,如离线支持和个人机场列表。

Studio Eveline

Benalmádena
España

我们和第三方通过cookies跟踪您在我们网站上的上网行为。如果您继续,我们认为您同意我们的cookie政策。 了解更多